createdAt,value
2023-05-12T00:01:56.320Z,4.80
2023-05-12T00:04:24.442Z,4.43
2023-05-12T00:06:52.066Z,5.00
2023-05-12T00:09:19.482Z,4.85
2023-05-12T00:11:48.684Z,4.63
2023-05-12T00:14:17.303Z,4.53
2023-05-12T00:16:45.039Z,4.57
2023-05-12T00:19:12.875Z,4.30
2023-05-12T00:21:41.994Z,4.85
2023-05-12T00:24:09.737Z,4.60
2023-05-12T00:26:37.234Z,4.03
2023-05-12T00:29:04.992Z,4.25
2023-05-12T00:31:33.129Z,3.97
2023-05-12T00:34:00.681Z,4.55
2023-05-12T00:36:28.391Z,4.63
2023-05-12T00:38:57.106Z,4.40
2023-05-12T00:41:25.125Z,3.85
2023-05-12T00:43:52.687Z,4.22
2023-05-12T00:46:20.659Z,4.40
2023-05-12T00:48:55.410Z,4.32
2023-05-12T00:51:23.217Z,4.38
2023-05-12T00:53:51.015Z,4.05
2023-05-12T00:56:20.354Z,4.18
2023-05-12T00:58:47.846Z,5.15
2023-05-12T01:01:15.473Z,4.25
2023-05-12T01:03:42.838Z,4.55
2023-05-12T01:06:22.891Z,4.65
2023-05-12T01:08:50.519Z,4.88
2023-05-12T01:11:18.058Z,4.53
2023-05-12T01:13:45.297Z,4.78
2023-05-12T01:16:14.287Z,4.38
2023-05-12T01:18:43.613Z,5.18
2023-05-12T01:21:11.188Z,4.85
2023-05-12T01:23:43.442Z,5.22
2023-05-12T01:26:11.133Z,4.82
2023-05-12T01:28:38.550Z,4.72
2023-05-12T01:31:07.595Z,4.65
2023-05-12T01:33:35.404Z,4.65
2023-05-12T01:36:02.868Z,4.70
2023-05-12T01:38:30.395Z,4.35
2023-05-12T01:40:57.984Z,4.53
2023-05-12T01:43:25.392Z,4.38
2023-05-12T01:45:52.696Z,4.20
2023-05-12T01:48:19.982Z,4.85
2023-05-12T01:50:47.340Z,4.95
2023-05-12T01:53:15.003Z,4.53
2023-05-12T01:55:42.508Z,5.20
2023-05-12T01:58:09.859Z,4.95
2023-05-12T02:00:39.617Z,4.35
2023-05-12T02:03:07.132Z,4.80
2023-05-12T02:05:37.037Z,4.47
2023-05-12T02:08:07.513Z,4.50
2023-05-12T02:10:35.062Z,4.95
2023-05-12T02:13:05.026Z,4.53
2023-05-12T02:15:32.403Z,4.63
2023-05-12T02:17:59.911Z,4.93
2023-05-12T02:20:29.521Z,4.85
2023-05-12T02:22:57.236Z,4.63
2023-05-12T02:25:24.893Z,5.18
2023-05-12T02:27:52.319Z,4.78
2023-05-12T02:30:20.249Z,5.07
2023-05-12T02:32:48.023Z,4.78
2023-05-12T02:35:15.748Z,5.22
2023-05-12T02:37:43.250Z,5.20
2023-05-12T02:40:11.072Z,4.72
2023-05-12T02:42:39.584Z,5.00
2023-05-12T02:45:08.491Z,5.10
2023-05-12T02:47:36.678Z,4.85
2023-05-12T02:50:04.987Z,4.97
2023-05-12T02:52:33.015Z,4.63
2023-05-12T02:55:01.120Z,5.32
2023-05-12T02:57:34.330Z,4.82
2023-05-12T03:00:02.438Z,5.70
2023-05-12T03:02:30.589Z,5.00
2023-05-12T03:04:58.240Z,5.30
2023-05-12T03:07:26.167Z,5.35
2023-05-12T03:09:53.470Z,5.45
2023-05-12T03:12:21.238Z,5.25
2023-05-12T03:14:48.790Z,5.38
2023-05-12T03:17:16.262Z,5.43
2023-05-12T03:19:43.961Z,4.70
2023-05-12T03:22:11.623Z,5.30
2023-05-12T03:24:39.496Z,5.03
2023-05-12T03:27:07.079Z,5.22
2023-05-12T03:29:34.545Z,5.20
2023-05-12T03:32:02.065Z,5.45
2023-05-12T03:34:29.747Z,5.97
2023-05-12T03:36:57.231Z,5.30
2023-05-12T03:39:25.324Z,5.13
2023-05-12T03:41:52.888Z,5.20
2023-05-12T03:44:20.689Z,5.05
2023-05-12T03:46:48.343Z,5.90
2023-05-12T03:49:15.688Z,4.95
2023-05-12T03:51:43.248Z,5.85
2023-05-12T03:54:10.889Z,5.10
2023-05-12T03:56:38.584Z,5.32
2023-05-12T03:59:06.573Z,5.72
2023-05-12T04:01:34.309Z,5.05
2023-05-12T04:04:01.856Z,5.20
2023-05-12T04:06:29.398Z,5.65
2023-05-12T04:08:56.579Z,4.40
2023-05-12T04:11:24.004Z,5.55
2023-05-12T04:13:51.484Z,4.95
2023-05-12T04:16:18.844Z,5.20
2023-05-12T04:18:46.471Z,4.75
2023-05-12T04:21:14.624Z,4.97
2023-05-12T04:23:42.550Z,5.38
2023-05-12T04:26:10.306Z,6.57
2023-05-12T04:28:40.448Z,5.20
2023-05-12T04:31:07.445Z,5.10
2023-05-12T04:33:34.445Z,5.00
2023-05-12T04:36:01.573Z,5.10
2023-05-12T04:38:28.675Z,5.38
2023-05-12T04:41:00.020Z,5.50
2023-05-12T04:46:00.401Z,5.72
2023-05-12T04:48:29.153Z,5.20
2023-05-12T04:50:56.218Z,5.15
2023-05-12T04:53:23.178Z,5.50
2023-05-12T04:55:51.336Z,5.18
2023-05-12T04:58:18.418Z,5.32
2023-05-12T05:00:45.441Z,5.97
2023-05-12T05:03:12.637Z,5.20
2023-05-12T05:05:39.916Z,5.45
2023-05-12T05:08:06.996Z,6.00
2023-05-12T05:10:34.507Z,5.18
2023-05-12T05:13:01.562Z,5.03
2023-05-12T05:16:03.537Z,5.18
2023-05-12T05:18:30.850Z,5.07
2023-05-12T05:20:59.024Z,5.63
2023-05-12T05:23:26.860Z,4.82
2023-05-12T05:25:53.997Z,5.13
2023-05-12T05:28:21.461Z,5.03
2023-05-12T05:30:48.507Z,4.43
2023-05-12T05:33:15.496Z,5.32
2023-05-12T05:35:42.716Z,4.70
2023-05-12T05:38:09.689Z,5.30
2023-05-12T05:40:49.249Z,4.55
2023-05-12T05:45:45.996Z,4.32
2023-05-12T05:48:13.427Z,5.05
2023-05-12T05:50:41.451Z,4.18
2023-05-12T05:53:08.479Z,5.00
2023-05-12T05:55:35.671Z,4.43
2023-05-12T05:58:02.582Z,4.68
2023-05-12T06:00:29.999Z,4.55
2023-05-12T06:02:57.434Z,4.35
2023-05-12T06:05:24.592Z,4.40
2023-05-12T06:07:51.580Z,4.38
2023-05-12T06:10:18.991Z,4.70
2023-05-12T06:12:46.297Z,5.20
2023-05-12T06:15:13.380Z,5.03
2023-05-12T06:17:40.649Z,4.75
2023-05-12T06:20:08.426Z,4.57
2023-05-12T06:22:35.543Z,4.70
2023-05-12T06:25:03.980Z,4.30
2023-05-12T06:27:31.360Z,4.97
2023-05-12T06:29:58.342Z,4.18
2023-05-12T06:32:25.572Z,4.05
2023-05-12T06:34:55.331Z,3.53
2023-05-12T06:37:22.270Z,4.00
2023-05-12T06:39:49.341Z,3.90
2023-05-12T06:42:16.340Z,3.85
2023-05-12T06:44:43.525Z,3.67
2023-05-12T06:47:10.598Z,3.97
2023-05-12T06:49:38.819Z,3.58
2023-05-12T06:52:06.791Z,4.40
2023-05-12T06:54:33.927Z,4.05
2023-05-12T06:57:01.359Z,3.85
2023-05-12T06:59:28.498Z,3.97
2023-05-12T07:01:55.993Z,3.83
2023-05-12T07:04:23.647Z,3.70
2023-05-12T07:07:02.960Z,4.35
2023-05-12T07:09:29.926Z,3.90
2023-05-12T07:11:56.910Z,3.80
2023-05-12T07:14:23.891Z,3.28
2023-05-12T07:16:51.793Z,3.58
2023-05-12T07:19:18.890Z,3.35
2023-05-12T07:21:45.846Z,3.47
2023-05-12T07:24:14.185Z,3.30
2023-05-12T07:26:41.132Z,3.10
2023-05-12T07:29:13.422Z,3.80
2023-05-12T07:31:40.911Z,3.05
2023-05-12T07:34:08.452Z,3.25
2023-05-12T07:36:35.702Z,3.15
2023-05-12T07:39:02.819Z,3.17
2023-05-12T07:41:31.932Z,3.10
2023-05-12T07:44:02.878Z,3.03
2023-05-12T07:46:29.981Z,3.35
2023-05-12T07:48:57.483Z,3.03
2023-05-12T07:51:24.602Z,3.10
2023-05-12T07:53:51.552Z,2.88
2023-05-12T07:56:18.492Z,2.88
2023-05-12T07:58:47.297Z,3.42
2023-05-12T08:01:14.642Z,3.40
2023-05-12T08:03:41.733Z,3.00
2023-05-12T08:06:08.863Z,2.97
2023-05-12T08:08:36.647Z,3.17
2023-05-12T08:11:03.681Z,3.33
2023-05-12T08:13:30.815Z,2.95
2023-05-12T08:15:57.742Z,3.00
2023-05-12T08:18:24.915Z,2.50
2023-05-12T08:20:51.912Z,2.85
2023-05-12T08:23:20.205Z,2.47
2023-05-12T08:25:48.645Z,2.28
2023-05-12T08:28:15.752Z,3.15
2023-05-12T08:30:42.939Z,2.50
2023-05-12T08:33:10.001Z,2.88
2023-05-12T08:35:37.059Z,2.03
2023-05-12T08:38:04.556Z,2.63
2023-05-12T08:41:06.509Z,2.10
2023-05-12T08:46:21.202Z,2.63
2023-05-12T08:48:53.861Z,3.10
2023-05-12T08:51:21.580Z,2.25
2023-05-12T08:53:50.126Z,2.63
2023-05-12T08:58:55.587Z,2.00
2023-05-12T09:01:23.629Z,2.10
2023-05-12T09:03:53.023Z,2.20
2023-05-12T09:06:20.420Z,2.38
2023-05-12T09:08:47.629Z,1.73
2023-05-12T09:11:14.943Z,2.10
2023-05-12T09:14:00.614Z,2.50
2023-05-12T09:16:33.874Z,2.17
2023-05-12T09:19:03.976Z,2.25
2023-05-12T09:21:34.736Z,2.08
2023-05-12T09:24:06.649Z,2.40
2023-05-12T09:26:56.196Z,2.10
2023-05-12T09:29:31.793Z,2.33
2023-05-12T09:32:03.096Z,2.22
2023-05-12T09:34:41.225Z,2.25
2023-05-12T09:37:08.749Z,2.78
2023-05-12T09:39:36.969Z,2.30
2023-05-12T09:42:04.284Z,2.58
2023-05-12T09:44:32.696Z,2.40
2023-05-12T09:47:10.559Z,2.20
2023-05-12T09:49:38.669Z,2.00
2023-05-12T09:52:06.172Z,3.22
2023-05-12T09:54:34.625Z,2.67
2023-05-12T09:57:05.520Z,2.58
2023-05-12T09:59:34.933Z,1.80
2023-05-12T10:02:06.094Z,2.42
2023-05-12T10:04:41.796Z,2.20
2023-05-12T10:07:12.217Z,2.05
2023-05-12T10:09:42.334Z,2.00
2023-05-12T10:12:10.304Z,2.33
2023-05-12T10:14:38.162Z,2.13
2023-05-12T10:17:12.988Z,2.03
2023-05-12T10:19:43.550Z,2.20
2023-05-12T10:22:11.705Z,2.13
2023-05-12T10:24:39.983Z,1.85
2023-05-12T10:27:08.426Z,2.30
2023-05-12T10:29:39.859Z,2.38
2023-05-12T10:32:11.188Z,2.13
2023-05-12T10:34:44.716Z,1.83
2023-05-12T10:37:15.353Z,1.92
2023-05-12T10:39:57.021Z,2.13
2023-05-12T10:42:26.215Z,2.28
2023-05-12T10:45:14.659Z,2.40
2023-05-12T10:47:43.611Z,2.20
2023-05-12T10:50:15.054Z,2.05
2023-05-12T10:52:54.336Z,2.30
2023-05-12T10:55:36.805Z,2.38
2023-05-12T10:58:12.301Z,2.20
2023-05-12T11:00:50.782Z,2.13
2023-05-12T11:03:25.822Z,2.55
2023-05-12T11:06:01.252Z,2.72
2023-05-12T11:08:28.756Z,2.13
2023-05-12T11:10:59.187Z,3.38
2023-05-12T11:13:26.414Z,2.03
2023-05-12T11:15:53.679Z,2.10
2023-05-12T11:18:22.025Z,2.00
2023-05-12T11:20:50.130Z,2.45
2023-05-12T11:23:32.493Z,2.45
2023-05-12T11:26:01.935Z,2.20
2023-05-12T11:28:40.150Z,1.90
2023-05-12T11:31:07.346Z,2.45
2023-05-12T11:33:34.396Z,1.90
2023-05-12T11:36:05.444Z,3.05
2023-05-12T11:38:32.489Z,2.28
2023-05-12T11:40:59.676Z,2.25
2023-05-12T11:43:28.533Z,2.10
2023-05-12T11:45:55.937Z,2.60
2023-05-12T11:48:23.452Z,2.20
2023-05-12T11:50:51.495Z,2.05
2023-05-12T11:53:27.702Z,2.33
2023-05-12T11:55:57.445Z,2.40
2023-05-12T11:58:27.034Z,2.20
2023-05-12T12:00:54.630Z,2.38
2023-05-12T12:03:22.840Z,2.40
2023-05-12T12:06:13.183Z,2.42
2023-05-12T12:08:58.284Z,2.60
2023-05-12T12:11:35.012Z,2.47
2023-05-12T12:14:03.041Z,2.25
2023-05-12T12:16:33.744Z,2.40
2023-05-12T12:19:01.280Z,2.58
2023-05-12T12:21:28.391Z,3.25
2023-05-12T12:23:59.191Z,2.40
2023-05-12T12:26:46.306Z,3.03
2023-05-12T12:29:14.879Z,3.00
2023-05-12T12:31:48.611Z,2.50
2023-05-12T12:34:21.689Z,2.60
2023-05-12T12:36:57.002Z,2.22
2023-05-12T12:39:30.308Z,3.08
2023-05-12T12:42:05.222Z,2.63
2023-05-12T12:44:33.700Z,2.67
2023-05-12T12:47:08.247Z,2.58
2023-05-12T12:49:35.777Z,2.63
2023-05-12T12:52:02.843Z,2.55
2023-05-12T12:54:29.943Z,2.53
2023-05-12T12:56:57.128Z,2.30
2023-05-12T12:59:24.104Z,2.92
2023-05-12T13:01:51.122Z,2.30
2023-05-12T13:04:24.629Z,2.63
2023-05-12T13:06:54.626Z,2.35
2023-05-12T13:09:21.838Z,2.65
2023-05-12T13:11:49.095Z,2.22
2023-05-12T13:14:16.360Z,2.60
2023-05-12T13:16:43.582Z,2.20
2023-05-12T13:19:11.167Z,2.00
2023-05-12T13:21:38.303Z,2.15
2023-05-12T13:24:05.509Z,1.95
2023-05-12T13:26:35.073Z,2.20
2023-05-12T13:29:02.539Z,2.17
2023-05-12T13:31:32.387Z,2.58
2023-05-12T13:33:59.569Z,2.40
2023-05-12T13:36:26.987Z,2.38
2023-05-12T13:38:54.016Z,2.50
2023-05-12T13:41:21.150Z,2.03
2023-05-12T13:43:48.394Z,2.40
2023-05-12T13:46:16.122Z,2.28
2023-05-12T13:48:43.224Z,2.25
2023-05-12T13:51:10.889Z,2.20
2023-05-12T13:53:42.215Z,2.78
2023-05-12T13:56:10.098Z,2.45
2023-05-12T13:58:37.237Z,2.38
2023-05-12T14:01:04.998Z,2.30
2023-05-12T14:03:32.780Z,2.35
2023-05-12T14:05:59.824Z,2.40
2023-05-12T14:08:26.874Z,2.30
2023-05-12T14:10:54.084Z,2.30
2023-05-12T14:13:21.438Z,2.58
2023-05-12T14:15:50.169Z,2.20
2023-05-12T14:18:18.126Z,2.30
2023-05-12T14:20:45.674Z,2.33
2023-05-12T14:23:13.074Z,2.17
2023-05-12T14:25:40.289Z,3.08
2023-05-12T14:28:07.383Z,2.55
2023-05-12T14:30:37.784Z,2.25
2023-05-12T14:33:05.663Z,2.20
2023-05-12T14:35:32.981Z,2.45
2023-05-12T14:38:00.235Z,2.15
2023-05-12T14:40:27.816Z,2.20
2023-05-12T14:42:55.593Z,2.20
2023-05-12T14:45:23.017Z,2.25
2023-05-12T14:47:50.342Z,2.38
2023-05-12T14:50:19.051Z,2.20
2023-05-12T14:52:46.489Z,2.42
2023-05-12T14:55:13.998Z,2.08
2023-05-12T14:57:45.314Z,2.28
2023-05-12T15:00:15.268Z,2.40
2023-05-12T15:02:44.143Z,2.53
2023-05-12T15:05:13.718Z,2.58
2023-05-12T15:07:41.031Z,2.33
2023-05-12T15:10:08.622Z,2.30
2023-05-12T15:12:35.961Z,2.33
2023-05-12T15:15:05.245Z,2.35
2023-05-12T15:17:35.554Z,2.08
2023-05-12T15:20:03.320Z,2.25
2023-05-12T15:22:32.415Z,2.58
2023-05-12T15:24:59.902Z,2.15
2023-05-12T15:27:27.284Z,2.40
2023-05-12T15:29:54.330Z,2.22
2023-05-12T15:32:23.826Z,2.80
2023-05-12T15:34:51.030Z,2.22
2023-05-12T15:37:18.157Z,2.08
2023-05-12T15:39:45.416Z,2.50
2023-05-12T15:42:14.701Z,2.17
2023-05-12T15:44:47.326Z,2.17
2023-05-12T15:47:14.417Z,3.38
2023-05-12T15:49:41.536Z,2.10
2023-05-12T15:52:11.548Z,1.98
2023-05-12T15:54:41.473Z,2.50
2023-05-12T15:57:08.727Z,2.33
2023-05-12T15:59:37.530Z,2.58
2023-05-12T16:02:04.945Z,2.50
2023-05-12T16:04:32.488Z,3.00
2023-05-12T16:06:59.812Z,2.00
2023-05-12T16:09:27.038Z,2.30
2023-05-12T16:11:55.035Z,2.55
2023-05-12T16:14:22.347Z,2.38
2023-05-12T16:16:50.839Z,1.95
2023-05-12T16:19:18.613Z,2.15
2023-05-12T16:21:45.675Z,2.25
2023-05-12T16:24:15.359Z,2.08
2023-05-12T16:26:42.559Z,2.35
2023-05-12T16:29:09.669Z,2.47
2023-05-12T16:31:36.819Z,2.63
2023-05-12T16:34:03.937Z,2.35
2023-05-12T16:36:32.277Z,2.20
2023-05-12T16:38:59.943Z,2.90
2023-05-12T16:41:28.682Z,2.67
2023-05-12T16:43:56.091Z,2.50
2023-05-12T16:46:24.486Z,2.70
2023-05-12T16:48:51.692Z,2.10
2023-05-12T16:51:18.711Z,2.22
2023-05-12T16:53:45.766Z,2.15
2023-05-12T16:56:13.113Z,2.55
2023-05-12T16:58:40.611Z,2.30
2023-05-12T17:01:07.919Z,2.28
2023-05-12T17:03:35.213Z,2.80
2023-05-12T17:06:02.489Z,2.10
2023-05-12T17:08:29.535Z,2.35
2023-05-12T17:10:56.664Z,2.40
2023-05-12T17:13:23.745Z,2.47
2023-05-12T17:15:51.571Z,2.22
2023-05-12T17:18:18.906Z,2.25
2023-05-12T17:20:46.239Z,2.50
2023-05-12T17:23:13.257Z,2.78
2023-05-12T17:25:40.472Z,3.10
2023-05-12T17:28:07.568Z,2.28
2023-05-12T17:30:34.811Z,2.42
2023-05-12T17:33:01.914Z,3.05
2023-05-12T17:35:29.374Z,2.58
2023-05-12T17:37:56.474Z,2.58
2023-05-12T17:40:23.628Z,2.22
2023-05-12T17:42:51.608Z,2.38
2023-05-12T17:45:18.975Z,2.50
2023-05-12T17:47:46.590Z,3.53
2023-05-12T17:50:15.051Z,2.40
2023-05-12T17:52:43.656Z,3.22
2023-05-12T17:55:11.528Z,2.30
2023-05-12T17:57:38.712Z,2.28
2023-05-12T18:00:10.317Z,2.30
2023-05-12T18:02:38.793Z,2.75
2023-05-12T18:05:06.711Z,2.83
2023-05-12T18:07:35.195Z,2.38
2023-05-12T18:10:02.608Z,2.67
2023-05-12T18:12:29.912Z,2.75
2023-05-12T18:14:57.407Z,2.30
2023-05-12T18:17:24.641Z,2.90
2023-05-12T18:19:54.984Z,3.03
2023-05-12T18:22:22.210Z,3.33
2023-05-12T18:24:53.302Z,3.70
2023-05-12T18:27:20.826Z,3.92
2023-05-12T18:29:48.441Z,3.85
2023-05-12T18:32:15.711Z,3.55
2023-05-12T18:34:45.652Z,3.35
2023-05-12T18:37:15.783Z,3.10
2023-05-12T18:39:43.503Z,3.65
2023-05-12T18:42:13.894Z,3.95
2023-05-12T18:44:42.363Z,3.55
2023-05-12T18:47:09.533Z,5.20
2023-05-12T18:49:37.587Z,5.10
2023-05-12T18:52:08.232Z,4.50
2023-05-12T18:54:36.617Z,4.68
2023-05-12T18:57:03.828Z,4.57
2023-05-12T18:59:31.498Z,5.75
2023-05-12T19:01:58.578Z,5.25
2023-05-12T19:04:26.031Z,4.07
2023-05-12T19:06:53.838Z,4.07
2023-05-12T19:09:21.315Z,4.00
2023-05-12T19:11:49.040Z,4.30
2023-05-12T19:14:17.511Z,4.18
2023-05-12T19:16:46.888Z,3.92
2023-05-12T19:19:16.516Z,4.00
2023-05-12T19:21:43.665Z,5.00
2023-05-12T19:24:10.961Z,4.57
2023-05-12T19:26:37.974Z,4.15
2023-05-12T19:29:05.339Z,4.05
2023-05-12T19:31:35.535Z,4.57
2023-05-12T19:34:02.906Z,4.63
2023-05-12T19:36:30.984Z,4.35
2023-05-12T19:39:00.446Z,5.78
2023-05-12T19:41:29.131Z,4.63
2023-05-12T19:43:56.625Z,3.75
2023-05-12T19:46:23.928Z,4.75
2023-05-12T19:48:52.041Z,4.85
2023-05-12T19:51:21.298Z,5.90
2023-05-12T19:53:48.514Z,5.10
2023-05-12T19:56:21.808Z,4.88
2023-05-12T19:58:49.463Z,5.05
2023-05-12T20:01:16.760Z,5.32
2023-05-12T20:03:43.907Z,4.43
2023-05-12T20:06:11.251Z,6.18
2023-05-12T20:08:39.286Z,5.22
2023-05-12T20:11:07.820Z,7.22
2023-05-12T20:13:40.334Z,7.07
2023-05-12T20:16:09.411Z,7.72
2023-05-12T20:18:37.960Z,8.15
2023-05-12T20:23:48.859Z,16.92
2023-05-12T20:26:18.637Z,16.86
2023-05-12T20:28:55.169Z,14.70
2023-05-12T20:31:23.711Z,10.93
2023-05-12T20:33:56.369Z,11.40
2023-05-12T20:36:38.537Z,10.23
2023-05-12T20:39:08.738Z,8.75
2023-05-12T20:44:24.008Z,7.65
2023-05-12T20:46:57.723Z,7.43
2023-05-12T20:49:31.792Z,10.00
2023-05-12T20:52:01.413Z,12.70
2023-05-12T20:54:34.953Z,20.95
2023-05-12T20:57:07.901Z,19.92
2023-05-12T20:59:52.997Z,11.00
2023-05-12T21:02:20.182Z,8.02
2023-05-12T21:04:47.564Z,9.88
2023-05-12T21:07:14.986Z,5.65
2023-05-12T21:09:42.134Z,5.60
2023-05-12T21:12:09.542Z,6.65
2023-05-12T21:14:43.656Z,6.05
2023-05-12T21:17:12.131Z,6.10
2023-05-12T21:19:42.789Z,6.40
2023-05-12T21:22:11.242Z,4.88
2023-05-12T21:24:39.513Z,4.90
2023-05-12T21:27:08.330Z,4.68
2023-05-12T21:29:43.843Z,4.85
2023-05-12T21:32:11.724Z,5.05
2023-05-12T21:34:39.046Z,10.23
2023-05-12T21:37:06.808Z,7.80
2023-05-12T21:39:34.318Z,7.53
2023-05-12T21:42:01.686Z,6.97
2023-05-12T21:44:28.872Z,6.78
2023-05-12T21:46:56.493Z,6.97
2023-05-12T21:49:23.747Z,5.60
2023-05-12T21:51:55.060Z,5.75
2023-05-12T21:54:22.139Z,7.05
2023-05-12T21:56:50.725Z,5.60
2023-05-12T21:59:18.136Z,5.00
2023-05-12T22:01:45.424Z,5.15
2023-05-12T22:04:15.254Z,4.85
2023-05-12T22:06:42.538Z,4.90
2023-05-12T22:09:09.573Z,4.93
2023-05-12T22:11:36.785Z,5.20
2023-05-12T22:14:04.439Z,4.82
2023-05-12T22:16:41.269Z,5.57
2023-05-12T22:19:09.736Z,6.03
2023-05-12T22:21:37.203Z,4.90
2023-05-12T22:24:04.583Z,5.25
2023-05-12T22:26:31.720Z,5.35
2023-05-12T22:28:58.895Z,5.35
2023-05-12T22:31:28.766Z,5.40
2023-05-12T22:33:55.892Z,5.53
2023-05-12T22:36:22.890Z,4.50
2023-05-12T22:38:50.042Z,5.32
2023-05-12T22:41:18.839Z,5.35
2023-05-12T22:43:46.392Z,6.50
2023-05-12T22:46:13.476Z,7.40
2023-05-12T22:48:41.046Z,6.85
2023-05-12T22:51:08.400Z,7.88
2023-05-12T22:53:41.541Z,8.88
2023-05-12T22:56:08.692Z,8.30
2023-05-12T22:58:35.913Z,9.18
2023-05-12T23:01:02.985Z,9.10
2023-05-12T23:03:30.512Z,7.40
2023-05-12T23:05:57.587Z,8.80
2023-05-12T23:08:25.165Z,8.10
2023-05-12T23:10:52.235Z,6.97
2023-05-12T23:13:19.453Z,7.78
2023-05-12T23:15:48.749Z,6.43
2023-05-12T23:18:15.826Z,6.22
2023-05-12T23:20:43.122Z,6.32
2023-05-12T23:23:11.246Z,6.20
2023-05-12T23:25:39.017Z,5.82
2023-05-12T23:28:06.677Z,6.18
2023-05-12T23:30:34.036Z,7.95
2023-05-12T23:33:01.232Z,6.00
2023-05-12T23:35:28.688Z,5.65
2023-05-12T23:37:56.013Z,6.53
2023-05-12T23:40:23.512Z,6.45
2023-05-12T23:42:50.881Z,6.60
2023-05-12T23:45:18.672Z,6.75
2023-05-12T23:47:45.735Z,6.18
2023-05-12T23:50:12.909Z,6.30
2023-05-12T23:52:39.886Z,6.07
2023-05-12T23:55:07.836Z,6.07
2023-05-12T23:57:34.973Z,5.70
